Time;durP1;ratioP1;P1;durP2;ratioP2;P2;SDS_P1;SDS_P2;PMS_P1;PMS_P2;Temp;Humidity;BMP_temperature;BMP_pressure;BME280_temperature;BME280_humidity;BME280_pressure;Samples;Min_cycle;Max_cycle;Signal;HPM_P1;HPM_P2
2022/04/10 00:01:38;;;;;;;6.80;4.00;;;;;;;2.37;71.74;99662.31;88197;1276;88251;-72
2022/04/10 00:03:47;;;;;;;6.60;4.20;;;;;;;2.30;71.74;99666.23;88195;1276;93797;-71
2022/04/10 00:05:59;;;;;;;8.00;4.40;;;;;;;2.25;71.96;99670.73;88168;1276;76860;-70
2022/04/10 00:08:11;;;;;;;7.80;3.90;;;;;;;2.22;71.94;99675.64;88183;1276;81895;-72
2022/04/10 00:10:20;;;;;;;7.40;4.20;;;;;;;2.19;72.09;99680.95;88163;1276;99233;-72
2022/04/10 00:12:30;;;;;;;6.20;4.10;;;;;;;2.17;72.20;99683.03;88149;1276;89059;-72
2022/04/10 00:14:42;;;;;;;7.20;4.40;;;;;;;2.13;72.15;99683.13;88124;1276;95163;-71
2022/04/10 00:16:56;;;;;;;8.30;4.50;;;;;;;2.09;72.16;99684.55;88168;1276;80947;-73
2022/04/10 00:19:04;;;;;;;;;;;;;;;2.09;72.49;99684.05;88108;1276;81523;-71
2022/04/10 00:21:13;;;;;;;7.70;4.30;;;;;;;2.08;72.66;99685.22;88096;1277;98059;-71
2022/04/10 00:23:21;;;;;;;6.90;4.20;;;;;;;2.05;72.76;99688.23;88182;1276;89372;-72
2022/04/10 00:25:30;;;;;;;10.10;4.30;;;;;;;2.04;72.77;99690.08;88195;1276;93082;-71
2022/04/10 00:27:43;;;;;;;9.30;4.10;;;;;;;2.04;72.98;99687.77;88160;1276;79286;-72
2022/04/10 00:29:51;;;;;;;9.40;4.90;;;;;;;2.05;72.91;99687.34;88167;1276;80653;-70
2022/04/10 00:32:04;;;;;;;7.70;4.60;;;;;;;2.00;72.94;99691.54;88056;1278;97682;-71
2022/04/10 00:34:13;;;;;;;9.20;5.20;;;;;;;1.95;73.17;99691.55;88117;1276;89068;-71
2022/04/10 00:36:22;;;;;;;7.50;4.60;;;;;;;1.88;73.14;99693.66;88165;1276;93478;-72
2022/04/10 00:38:31;;;;;;;7.70;4.80;;;;;;;1.83;73.18;99690.98;88153;1276;78388;-73
2022/04/10 00:40:43;;;;;;;7.70;4.40;;;;;;;1.76;73.24;99688.43;88151;1276;82630;-71
2022/04/10 00:42:53;;;;;;;9.90;4.60;;;;;;;1.70;73.50;99689.53;88149;1276;98810;-71
2022/04/10 00:45:04;;;;;;;5.70;4.30;;;;;;;1.68;73.66;99689.35;88098;1276;88137;-72
2022/04/10 00:47:13;;;;;;;8.10;4.20;;;;;;;1.68;73.55;99690.05;88118;1279;96239;-72
2022/04/10 00:49:25;;;;;;;10.30;4.80;;;;;;;1.68;73.70;99695.71;88133;1276;79436;-72
2022/04/10 00:51:41;;;;;;;7.70;4.20;;;;;;;1.68;73.84;99694.64;88183;1276;80135;-73
2022/04/10 00:53:53;;;;;;;8.30;4.60;;;;;;;1.69;73.84;99700.58;88167;1276;99209;-71
2022/04/10 00:56:07;;;;;;;6.80;4.60;;;;;;;1.70;73.91;99702.68;88102;1279;89296;-73
2022/04/10 00:58:18;;;;;;;8.00;4.50;;;;;;;1.71;74.02;99704.12;88154;1276;94737;-73
2022/04/10 01:00:27;;;;;;;9.10;5.70;;;;;;;1.71;73.97;99707.85;88145;1276;80217;-73
2022/04/10 01:02:36;;;;;;;8.50;4.20;;;;;;;1.69;73.99;99710.16;88172;1276;82381;-72
2022/04/10 01:04:47;;;;;;;7.90;4.60;;;;;;;1.64;73.98;99714.82;88190;1276;98871;-72
2022/04/10 01:07:02;;;;;;;6.50;4.00;;;;;;;1.58;74.16;99716.74;88153;1276;87975;-72
2022/04/10 01:09:11;;;;;;;10.00;4.50;;;;;;;1.53;74.14;99722.79;88162;1276;95615;-72
2022/04/10 01:11:21;;;;;;;7.10;4.30;;;;;;;1.46;74.20;99731.09;88135;1276;79440;-72
2022/04/10 01:13:31;;;;;;;8.30;4.50;;;;;;;1.45;74.44;99735.98;88154;1276;82990;-71
2022/04/10 01:15:43;;;;;;;7.30;4.50;;;;;;;1.46;74.54;99734.31;88122;1277;99348;-71
2022/04/10 01:17:56;;;;;;;7.50;4.30;;;;;;;1.46;74.61;99736.11;88163;1276;89427;-72
2022/04/10 01:20:06;;;;;;;8.10;4.70;;;;;;;1.47;74.58;99737.64;88159;1276;94920;-72
2022/04/10 01:22:27;;;;;;;8.40;4.30;;;;;;;1.45;74.67;99740.11;88177;1276;77882;-72
2022/04/10 01:24:43;;;;;;;8.00;4.70;;;;;;;1.43;74.68;99741.88;88164;1276;81451;-72
2022/04/10 01:26:56;;;;;;;7.90;4.30;;;;;;;1.43;74.75;99742.25;88164;1276;98974;-72
2022/04/10 01:29:11;;;;;;;8.00;4.30;;;;;;;1.44;74.99;99744.16;88166;1276;88834;-72
2022/04/10 01:31:22;;;;;;;9.10;4.60;;;;;;;1.38;74.81;99740.94;88182;1276;95383;-72
2022/04/10 01:33:35;;;;;;;8.10;4.50;;;;;;;1.30;74.91;99742.12;88169;1276;81019;-71
2022/04/10 01:35:48;;;;;;;8.80;4.30;;;;;;;1.24;74.94;99750.88;88171;1276;83331;-71
2022/04/10 01:38:01;;;;;;;7.00;4.00;;;;;;;1.16;75.00;99750.27;88213;1276;96369;-71
2022/04/10 01:40:13;;;;;;;6.30;4.10;;;;;;;1.13;75.05;99752.27;88186;1276;88305;-72
2022/04/10 01:42:22;;;;;;;7.20;4.50;;;;;;;1.13;75.14;99754.75;88160;1276;96016;-71
2022/04/10 01:44:42;;;;;;;7.80;3.50;;;;;;;1.13;75.21;99759.17;88170;1276;79921;-71
2022/04/10 01:46:55;;;;;;;7.10;3.60;;;;;;;1.10;75.45;99757.48;88182;1276;80712;-71
2022/04/10 01:49:05;;;;;;;8.50;4.20;;;;;;;1.09;75.43;99756.20;88165;1276;97603;-72
2022/04/10 01:51:15;;;;;;;6.60;3.70;;;;;;;1.09;75.48;99758.30;88165;1276;89070;-71
2022/04/10 01:53:24;;;;;;;6.20;3.70;;;;;;;1.14;75.65;99762.95;88118;1276;93574;-71
2022/04/10 01:55:34;;;;;;;7.20;3.80;;;;;;;1.16;75.71;99763.80;88160;1276;79198;-71
2022/04/10 01:57:42;;;;;;;6.60;3.70;;;;;;;1.15;75.61;99772.27;88162;1276;79602;-72
2022/04/10 01:59:51;;;;;;;5.80;3.80;;;;;;;1.08;75.60;99770.48;88160;1276;98807;-73
2022/04/10 02:02:00;;;;;;;6.70;4.50;;;;;;;1.06;75.92;99769.69;88179;1276;89232;-73
2022/04/10 02:04:10;;;;;;;8.30;4.00;;;;;;;1.03;75.70;99768.48;88161;1276;95253;-71
2022/04/10 02:06:20;;;;;;;7.60;4.20;;;;;;;0.99;75.77;99768.63;88154;1276;78915;-72
2022/04/10 02:08:30;;;;;;;11.10;4.50;;;;;;;0.97;75.81;99771.50;88179;1276;81354;-71
2022/04/10 02:10:39;;;;;;;7.30;3.90;;;;;;;0.93;75.85;99772.61;88183;1276;97842;-71
2022/04/10 02:12:49;;;;;;;7.60;4.10;;;;;;;0.91;75.88;99775.74;88144;1276;89555;-73
2022/04/10 02:14:58;;;;;;;7.80;4.00;;;;;;;0.93;76.23;99780.60;88168;1276;96083;-72
2022/04/10 02:17:07;;;;;;;8.40;4.30;;;;;;;0.95;76.43;99783.02;88177;1276;79580;-71
2022/04/10 02:19:16;;;;;;;7.70;3.80;;;;;;;0.96;76.36;99784.84;88091;1276;82801;-71
2022/04/10 02:21:25;;;;;;;5.20;3.20;;;;;;;0.98;76.52;99784.84;88131;1276;99232;-68
2022/04/10 02:23:35;;;;;;;8.90;4.00;;;;;;;1.02;76.73;99787.31;88204;1276;85905;-73
2022/04/10 02:25:44;;;;;;;7.60;3.80;;;;;;;1.04;76.49;99784.11;88156;1276;95269;-72
2022/04/10 02:27:53;;;;;;;6.70;3.10;;;;;;;1.09;76.84;99788.27;88145;1276;79304;-72
2022/04/10 02:30:02;;;;;;;5.20;3.40;;;;;;;1.09;76.60;99790.41;88046;1278;81490;-73
2022/04/10 02:32:12;;;;;;;8.60;3.30;;;;;;;1.09;76.70;99785.39;88113;1276;97862;-72
2022/04/10 02:34:24;;;;;;;6.40;3.40;;;;;;;1.12;76.69;99792.05;88227;1276;87894;-71
2022/04/10 02:36:36;;;;;;;6.50;3.70;;;;;;;1.16;76.74;99794.43;88139;1276;94661;-72
2022/04/10 02:38:45;;;;;;;5.80;3.60;;;;;;;1.16;76.69;99798.21;88199;1276;77341;-73
2022/04/10 02:40:57;;;;;;;5.30;3.50;;;;;;;1.11;76.73;99798.72;88182;1276;81336;-73
2022/04/10 02:43:10;;;;;;;8.10;3.40;;;;;;;1.06;76.54;99801.27;88161;1276;97878;-74
2022/04/10 02:45:22;;;;;;;6.40;3.20;;;;;;;0.98;76.49;99799.52;88174;1276;89191;-72
2022/04/10 02:47:31;;;;;;;8.90;4.30;;;;;;;0.95;76.65;99795.59;88159;1276;95617;-72
2022/04/10 02:49:40;;;;;;;7.20;3.70;;;;;;;0.92;76.78;99797.13;88150;1276;78346;-72
2022/04/10 02:51:49;;;;;;;6.60;3.40;;;;;;;0.86;76.60;99797.30;88131;1276;82427;-72
2022/04/10 02:53:59;;;;;;;6.50;3.20;;;;;;;0.83;76.75;99804.59;88170;1276;98910;-73
2022/04/10 02:56:08;;;;;;;8.40;3.60;;;;;;;0.83;76.74;99802.80;88185;1276;86687;-74
2022/04/10 02:58:16;;;;;;;7.00;3.20;;;;;;;0.83;76.80;99808.06;88158;1276;95725;-73
2022/04/10 03:00:26;;;;;;;5.20;2.90;;;;;;;0.85;77.03;99810.02;88162;1276;78719;-72
2022/04/10 03:02:41;;;;;;;5.90;3.20;;;;;;;0.87;77.08;99811.27;88199;1276;83220;-72
2022/04/10 03:04:53;;;;;;;9.80;3.20;;;;;;;0.88;77.11;99812.42;88147;1276;98820;-72
2022/04/10 03:07:03;;;;;;;7.90;4.10;;;;;;;0.91;77.23;99814.79;88121;1276;86408;-72
2022/04/10 03:09:12;;;;;;;8.30;2.90;;;;;;;0.95;77.19;99818.35;88168;1276;94283;-71
2022/04/10 03:11:25;;;;;;;6.30;2.70;;;;;;;1.00;77.27;99816.60;88164;1276;77646;-72
2022/04/10 03:13:38;;;;;;;7.70;3.50;;;;;;;1.00;77.27;99819.23;88137;1276;82756;-72
2022/04/10 03:15:47;;;;;;;6.70;3.10;;;;;;;0.97;77.23;99825.36;88196;1276;97815;-72
2022/04/10 03:17:58;;;;;;;5.00;3.30;;;;;;;0.96;77.18;99826.21;88118;1277;88502;-72
2022/04/10 03:20:13;;;;;;;9.80;3.20;;;;;;;0.90;77.42;99828.03;88136;1277;96046;-73
2022/04/10 03:22:25;;;;;;;8.00;3.40;;;;;;;0.89;77.50;99827.95;88159;1276;78864;-72
2022/04/10 03:24:36;;;;;;;5.40;2.70;;;;;;;0.86;77.36;99829.10;88162;1276;81859;-72
2022/04/10 03:26:45;;;;;;;6.70;3.40;;;;;;;0.79;77.23;99828.30;88186;1276;96445;-73
2022/04/10 03:28:54;;;;;;;7.50;3.50;;;;;;;0.74;77.31;99831.08;88132;1276;88952;-71
2022/04/10 03:31:04;;;;;;;6.80;3.50;;;;;;;0.68;77.53;99835.90;88156;1276;94204;-70
2022/04/10 03:33:15;;;;;;;6.60;3.10;;;;;;;0.67;77.38;99836.39;88167;1276;82070;-72
2022/04/10 03:35:24;;;;;;;6.60;3.20;;;;;;;0.67;77.39;99835.30;88149;1276;83337;-72
2022/04/10 03:37:33;;;;;;;7.50;3.80;;;;;;;0.69;77.55;99841.62;88170;1276;99842;-72
2022/04/10 03:39:46;;;;;;;6.90;3.70;;;;;;;0.72;77.63;99842.07;88180;1276;86617;-72
2022/04/10 03:41:58;;;;;;;6.40;3.00;;;;;;;0.78;77.62;99842.06;88142;1276;92978;-72
2022/04/10 03:44:08;;;;;;;8.40;3.30;;;;;;;0.79;77.96;99839.45;88163;1276;78039;-72
2022/04/10 03:46:20;;;;;;;5.60;3.20;;;;;;;0.83;77.91;99847.42;88170;1276;81131;-72
2022/04/10 03:48:30;;;;;;;6.60;3.10;;;;;;;0.85;77.94;99845.45;88150;1276;98721;-71
2022/04/10 03:50:42;;;;;;;7.00;3.50;;;;;;;0.89;78.02;99848.64;88118;1276;87392;-70
2022/04/10 03:52:51;;;;;;;7.70;3.00;;;;;;;0.88;77.88;99853.88;88152;1276;94043;-71
2022/04/10 03:55:03;;;;;;;7.30;3.50;;;;;;;0.88;78.01;99854.09;88141;1277;79852;-71
2022/04/10 03:57:12;;;;;;;8.40;3.50;;;;;;;0.87;77.97;99856.32;88164;1276;80612;-72
2022/04/10 03:59:24;;;;;;;7.90;3.00;;;;;;;0.89;77.91;99857.54;88155;1276;97538;-72
2022/04/10 04:01:36;;;;;;;8.60;3.80;;;;;;;0.91;77.96;99862.12;88141;1276;86639;-72
2022/04/10 04:03:45;;;;;;;6.70;3.20;;;;;;;0.97;78.16;99864.02;88153;1276;93398;-72
2022/04/10 04:05:55;;;;;;;6.10;2.90;;;;;;;1.04;78.14;99870.12;88035;1278;83852;-73
2022/04/10 04:08:05;;;;;;;7.50;2.90;;;;;;;1.10;78.11;99873.66;88171;1276;81598;-71
2022/04/10 04:10:17;;;;;;;6.00;2.90;;;;;;;1.16;78.04;99875.16;88064;1278;97773;-71
2022/04/10 04:12:27;;;;;;;9.10;3.50;;;;;;;1.22;78.15;99887.95;88185;1276;87076;-72
2022/04/10 04:14:38;;;;;;;7.60;3.50;;;;;;;1.25;78.11;99894.02;88163;1276;94095;-73
2022/04/10 04:16:47;;;;;;;6.00;3.00;;;;;;;1.28;77.92;99896.20;88155;1276;78412;-72
2022/04/10 04:18:59;;;;;;;6.40;3.50;;;;;;;1.34;78.04;99898.71;88194;1276;81568;-72
2022/04/10 04:21:08;;;;;;;6.60;3.10;;;;;;;1.37;77.86;99897.29;88159;1276;98249;-72
2022/04/10 04:23:19;;;;;;;8.50;3.80;;;;;;;1.43;77.72;99898.86;88069;1279;88931;-71
2022/04/10 04:25:28;;;;;;;6.10;3.00;;;;;;;1.49;78.05;99898.52;88148;1276;94893;-71
2022/04/10 04:27:38;;;;;;;6.70;3.30;;;;;;;1.63;77.90;99899.49;88173;1276;78672;-71
2022/04/10 04:29:47;;;;;;;8.40;3.40;;;;;;;2.17;77.85;99900.45;88188;1276;81753;-70
2022/04/10 04:31:56;;;;;;;5.30;2.90;;;;;;;2.51;77.29;99900.52;88163;1276;96693;-71
2022/04/10 04:34:07;;;;;;;5.90;3.00;;;;;;;2.54;77.00;99903.63;88166;1276;86554;-72
2022/04/10 04:36:16;;;;;;;7.20;3.30;;;;;;;2.79;77.04;99902.30;88180;1276;96002;-71
2022/04/10 04:38:25;;;;;;;6.20;3.00;;;;;;;3.57;76.92;99897.88;88133;1276;80390;-71
2022/04/10 04:40:34;;;;;;;7.60;3.10;;;;;;;4.81;76.20;99898.79;88157;1276;80753;-72
2022/04/10 04:42:46;;;;;;;6.30;2.90;;;;;;;6.04;75.26;99904.82;88139;1276;97059;-71
2022/04/10 04:44:55;;;;;;;7.00;3.30;;;;;;;7.24;73.98;99901.16;88156;1277;87720;-72
2022/04/10 04:47:04;;;;;;;6.80;3.30;;;;;;;8.26;72.66;99901.21;88061;1276;95604;-71
2022/04/10 04:49:13;;;;;;;7.10;3.60;;;;;;;9.17;70.79;99906.91;88125;1278;79927;-72
2022/04/10 04:51:25;;;;;;;6.10;3.10;;;;;;;9.90;69.08;99907.77;88185;1276;81604;-72
2022/04/10 04:53:34;;;;;;;8.00;3.30;;;;;;;10.44;68.06;99911.80;88164;1276;98601;-71
2022/04/10 04:55:46;;;;;;;6.00;3.10;;;;;;;10.89;67.14;99908.77;87950;1276;298780;-71
2022/04/10 04:57:55;;;;;;;6.70;2.80;;;;;;;10.81;66.30;99908.50;88196;1276;94739;-72
2022/04/10 05:00:09;;;;;;;6.50;3.10;;;;;;;10.65;64.57;99912.84;88125;1276;78291;-72
2022/04/10 05:02:18;;;;;;;6.80;3.20;;;;;;;10.71;64.16;99917.45;88164;1276;80673;-71
2022/04/10 05:04:27;;;;;;;6.20;3.40;;;;;;;10.77;63.77;99919.88;88149;1276;99501;-71
2022/04/10 05:06:37;;;;;;;5.40;3.00;;;;;;;10.65;63.01;99923.32;88166;1277;88154;-72
2022/04/10 05:08:46;;;;;;;5.10;2.90;;;;;;;10.45;62.94;99929.87;88185;1276;93730;-72
2022/04/10 05:10:56;;;;;;;7.10;3.00;;;;;;;10.41;62.86;99931.50;88168;1276;79179;-73
2022/04/10 05:13:09;;;;;;;5.90;2.70;;;;;;;10.55;62.42;99930.26;88140;1276;81349;-72
2022/04/10 05:15:18;;;;;;;5.10;3.20;;;;;;;10.86;62.07;99929.46;88152;1277;97854;-72
2022/04/10 05:17:28;;;;;;;9.80;4.30;;;;;;;11.35;60.63;99922.52;88123;1277;88217;-72
2022/04/10 05:19:37;;;;;;;8.00;3.40;;;;;;;11.62;60.10;99927.25;88132;1276;95491;-71
2022/04/10 05:21:49;;;;;;;6.50;3.60;;;;;;;11.81;60.26;99930.83;88061;1278;82323;-71
2022/04/10 05:23:59;;;;;;;6.20;3.20;;;;;;;12.62;60.01;99925.85;88146;1276;79366;-72
2022/04/10 05:26:11;;;;;;;5.60;3.00;;;;;;;13.79;59.19;99927.54;88155;1277;98765;-72
2022/04/10 05:28:22;;;;;;;6.50;3.20;;;;;;;14.86;57.68;99931.04;88194;1277;87747;-70
2022/04/10 05:30:31;;;;;;;6.60;3.50;;;;;;;15.73;56.76;99929.52;88146;1276;94500;-71
2022/04/10 05:32:42;;;;;;;4.90;2.70;;;;;;;16.20;55.46;99928.81;88128;1276;80118;-70
2022/04/10 05:34:52;;;;;;;6.10;2.80;;;;;;;16.93;53.62;99930.93;88165;1277;79529;-73
2022/04/10 05:37:01;;;;;;;5.20;2.80;;;;;;;17.55;52.28;99933.73;88149;1276;96776;-71
2022/04/10 05:39:11;;;;;;;4.70;2.60;;;;;;;17.88;51.51;99929.69;88176;1276;87553;-72
2022/04/10 05:41:20;;;;;;;6.70;2.90;;;;;;;18.39;50.92;99938.30;88159;1276;95637;-70
2022/04/10 05:43:30;;;;;;;5.50;3.00;;;;;;;18.70;49.16;99933.84;88127;1277;80699;-72
2022/04/10 05:45:39;;;;;;;5.90;2.90;;;;;;;18.86;46.45;99935.04;88160;1276;82597;-71
2022/04/10 05:47:48;;;;;;;5.20;2.80;;;;;;;19.13;47.39;99936.25;88151;1277;98028;-72
2022/04/10 05:49:58;;;;;;;5.70;3.20;;;;;;;19.73;47.40;99936.79;88159;1277;89352;-72
2022/04/10 05:52:10;;;;;;;4.60;2.60;;;;;;;20.03;46.75;99936.56;88208;1276;94163;-71
2022/04/10 05:54:19;;;;;;;4.90;2.90;;;;;;;20.48;45.62;99939.48;88166;1277;81410;-71
2022/04/10 05:56:28;;;;;;;5.70;3.10;;;;;;;20.91;45.04;99941.63;88158;1277;82396;-71
2022/04/10 05:58:36;;;;;;;4.30;2.70;;;;;;;20.89;42.99;99942.55;88138;1277;99138;-72
2022/04/10 06:00:46;;;;;;;4.80;2.70;;;;;;;21.28;42.71;99939.34;88133;1278;88312;-72
2022/04/10 06:02:55;;;;;;;5.30;3.20;;;;;;;21.31;41.69;99940.39;88136;1276;95429;-72
2022/04/10 06:05:09;;;;;;;4.30;2.60;;;;;;;21.79;41.20;99937.39;88067;1278;78335;-73
2022/04/10 06:07:16;;;;;;;;;;;;;;;22.16;40.58;99940.56;88202;1277;82878;-71
2022/04/10 06:09:25;;;;;;;6.40;3.10;;;;;;;22.31;40.41;99941.59;88148;1277;99522;-70
2022/04/10 06:11:35;;;;;;;5.70;3.20;;;;;;;22.30;39.54;99945.45;88171;1277;88106;-70
2022/04/10 06:13:46;;;;;;;7.00;2.70;;;;;;;22.51;38.58;99945.26;88125;1277;95388;-68
2022/04/10 06:15:56;;;;;;;5.20;2.90;;;;;;;22.76;39.02;99946.59;88154;1277;79521;-67
2022/04/10 06:18:04;;;;;;;4.00;2.60;;;;;;;22.86;39.33;99947.11;88161;1277;79650;-68
2022/04/10 06:20:17;;;;;;;5.70;3.20;;;;;;;23.51;38.36;99949.46;88140;1276;97442;-72
2022/04/10 06:22:29;;;;;;;5.30;3.00;;;;;;;23.75;37.42;99946.01;88211;1277;87352;-70
2022/04/10 06:24:39;;;;;;;5.30;2.70;;;;;;;23.97;37.57;99948.45;88117;1277;95368;-71
2022/04/10 06:26:51;;;;;;;5.10;2.90;;;;;;;24.37;37.19;99945.34;88149;1276;81601;-68
2022/04/10 06:29:01;;;;;;;6.50;3.40;;;;;;;24.38;35.91;99947.12;88138;1277;81299;-68
2022/04/10 06:31:13;;;;;;;4.00;2.70;;;;;;;23.59;35.11;99946.91;88125;1278;98517;-69
2022/04/10 06:33:25;;;;;;;5.90;3.10;;;;;;;22.93;35.41;99953.10;88151;1277;87052;-70
2022/04/10 06:35:39;;;;;;;6.60;2.80;;;;;;;23.40;35.28;99959.02;88141;1277;94764;-71
2022/04/10 06:37:48;;;;;;;5.10;3.00;;;;;;;22.39;34.53;99958.06;88189;1277;80346;-73
2022/04/10 06:39:57;;;;;;;5.60;3.00;;;;;;;20.95;34.42;99956.38;88144;1277;82515;-70
2022/04/10 06:42:12;;;;;;;5.40;2.80;;;;;;;20.29;34.58;99957.98;88148;1277;97061;-71
2022/04/10 06:44:24;;;;;;;5.10;2.70;;;;;;;20.72;34.55;99957.41;88161;1278;87048;-70
2022/04/10 06:46:36;;;;;;;5.90;3.00;;;;;;;22.13;34.94;99954.34;88134;1277;93702;-70
2022/04/10 06:48:46;;;;;;;4.90;2.80;;;;;;;23.01;34.63;99952.27;88115;1277;79888;-68
2022/04/10 06:50:59;;;;;;;7.60;3.40;;;;;;;23.18;33.66;99957.50;88149;1277;80956;-71
2022/04/10 06:53:15;;;;;;;5.50;2.40;;;;;;;22.10;32.81;99961.81;88183;1278;98360;-70
2022/04/10 06:55:30;;;;;;;4.20;2.90;;;;;;;20.79;33.72;99967.34;88172;1276;89265;-70
2022/04/10 06:57:43;;;;;;;4.80;2.90;;;;;;;20.86;34.24;99964.84;88162;1277;95000;-69
2022/04/10 06:59:57;;;;;;;6.00;2.90;;;;;;;20.30;33.71;99966.14;88170;1277;79977;-71
2022/04/10 07:02:07;;;;;;;6.50;2.90;;;;;;;18.68;34.14;99974.92;88153;1278;82921;-71
2022/04/10 07:04:25;;;;;;;5.80;2.30;;;;;;;19.36;35.83;99975.86;88147;1277;98388;-71
2022/04/10 07:06:37;;;;;;;5.80;2.70;;;;;;;19.68;34.69;99976.05;88129;1278;86804;-70
2022/04/10 07:08:50;;;;;;;5.40;3.20;;;;;;;18.92;34.94;99977.64;88208;1276;94858;-70
2022/04/10 07:11:00;;;;;;;5.50;2.90;;;;;;;18.56;35.01;99975.55;88175;1277;78736;-71
2022/04/10 07:13:11;;;;;;;6.40;2.80;;;;;;;18.87;35.15;99977.14;88173;1277;81104;-71
2022/04/10 07:15:23;;;;;;;5.20;2.70;;;;;;;18.07;35.36;99969.63;88174;1277;98043;-70
2022/04/10 07:17:35;;;;;;;3.50;2.40;;;;;;;19.15;35.96;99975.52;88154;1277;88712;-70
2022/04/10 07:19:45;;;;;;;4.10;2.80;;;;;;;20.17;35.73;99970.77;88161;1276;94511;-69
2022/04/10 07:24:24;;;;;;;4.90;2.70;;;;;;;22.79;33.89;99968.11;88162;1276;81260;-70
2022/04/10 07:26:33;;;;;;;4.50;3.00;;;;;;;23.77;33.36;99965.08;88138;1277;97372;-69
2022/04/10 07:28:42;;;;;;;4.00;2.70;;;;;;;23.62;32.83;99969.27;88131;1276;88671;-71
2022/04/10 07:30:51;;;;;;;5.70;3.10;;;;;;;24.13;32.83;99969.52;88113;1276;95257;-72
2022/04/10 07:33:01;;;;;;;4.10;2.40;;;;;;;23.37;31.74;99975.52;88118;1278;81320;-70
2022/04/10 07:35:12;;;;;;;4.40;2.50;;;;;;;23.92;31.72;99972.87;88169;1277;81234;-70
2022/04/10 07:37:21;;;;;;;6.60;3.10;;;;;;;24.45;31.56;99974.37;88166;1278;99321;-70
2022/04/10 07:39:30;;;;;;;6.90;3.00;;;;;;;25.19;30.57;99973.81;88184;1277;88420;-70
2022/04/10 07:41:40;;;;;;;3.60;2.20;;;;;;;26.10;30.17;99976.51;88118;1277;95847;-72
2022/04/10 07:43:53;;;;;;;5.00;2.40;;;;;;;26.28;29.39;99979.20;88120;1277;79757;-68
2022/04/10 07:48:33;;;;;;;4.40;2.50;;;;;;;23.84;30.11;99988.23;88131;1277;98589;-68
2022/04/10 07:50:43;;;;;;;5.30;2.60;;;;;;;24.43;30.59;99986.09;88196;1277;87420;-70
2022/04/10 07:52:56;;;;;;;7.00;2.80;;;;;;;25.03;29.91;99981.96;88094;1277;95219;-70
2022/04/10 07:55:05;;;;;;;5.00;2.90;;;;;;;24.54;29.43;99986.89;88144;1277;79266;-70
2022/04/10 07:57:14;;;;;;;4.60;3.20;;;;;;;23.69;29.06;99990.17;88161;1277;80241;-70
2022/04/10 07:59:24;;;;;;;5.30;3.00;;;;;;;21.73;29.29;99986.21;88119;1277;99930;-70
2022/04/10 08:01:37;;;;;;;6.00;2.40;;;;;;;21.82;29.97;99991.37;88163;1277;86625;-70
2022/04/10 08:03:51;;;;;;;5.30;2.10;;;;;;;22.26;29.84;99995.91;88161;1277;95694;-70
2022/04/10 08:06:00;;;;;;;4.00;2.70;;;;;;;23.32;30.04;99996.14;88118;1277;79624;-70
2022/04/10 08:08:11;;;;;;;3.40;2.10;;;;;;;24.38;29.41;99991.43;88147;1276;81809;-70
2022/04/10 08:10:24;;;;;;;5.10;2.40;;;;;;;24.93;27.75;99990.52;88152;1276;97581;-71
2022/04/10 08:12:36;;;;;;;4.70;2.70;;;;;;;23.76;28.17;99996.63;88111;1277;87696;-71
2022/04/10 08:14:45;;;;;;;3.70;2.40;;;;;;;22.95;28.68;100000.91;88137;1277;93048;-70
2022/04/10 08:16:58;;;;;;;3.80;2.10;;;;;;;21.64;28.66;100008.84;88132;1276;81158;-71
2022/04/10 08:19:11;;;;;;;4.40;2.10;;;;;;;20.30;29.53;100005.52;88157;1276;80513;-70
2022/04/10 08:21:24;;;;;;;3.80;2.30;;;;;;;19.55;30.28;100015.64;88118;1278;98931;-70
2022/04/10 08:23:34;;;;;;;4.90;1.90;;;;;;;18.98;30.35;100020.16;88136;1276;88337;-70
2022/04/10 08:25:46;;;;;;;5.30;2.40;;;;;;;18.29;30.98;100018.61;88125;1277;92799;-70
2022/04/10 08:27:58;;;;;;;5.30;2.30;;;;;;;18.27;31.52;100016.27;88152;1277;80935;-69
2022/04/10 08:30:12;;;;;;;5.80;2.40;;;;;;;18.43;31.56;100025.56;88180;1277;83595;-71
2022/04/10 08:32:21;;;;;;;5.10;2.00;;;;;;;18.09;31.71;100028.55;88147;1276;99695;-70
2022/04/10 08:34:31;;;;;;;4.50;2.50;;;;;;;17.47;32.28;100030.15;88159;1276;87694;-69
2022/04/10 08:36:43;;;;;;;3.60;1.90;;;;;;;17.16;32.46;100032.23;88151;1276;93401;-71
2022/04/10 08:38:52;;;;;;;7.40;2.40;;;;;;;16.79;32.93;100033.72;88155;1276;80462;-68
2022/04/10 08:41:03;;;;;;;4.40;2.10;;;;;;;16.53;33.17;100035.95;88144;1276;82256;-68
2022/04/10 08:43:17;;;;;;;5.10;2.40;;;;;;;16.14;33.79;100041.83;88200;1276;99747;-73
2022/04/10 08:45:30;;;;;;;4.80;2.00;;;;;;;16.32;33.85;100044.30;88112;1276;87604;-69
2022/04/10 08:47:43;;;;;;;4.00;1.90;;;;;;;16.24;33.95;100049.77;88086;1276;95500;-66
2022/04/10 08:49:54;;;;;;;4.40;2.30;;;;;;;15.66;33.92;100055.94;88121;1276;80125;-68
2022/04/10 08:52:08;;;;;;;5.50;2.30;;;;;;;15.21;34.31;100053.08;88169;1276;83597;-68
2022/04/10 08:54:19;;;;;;;6.30;2.40;;;;;;;14.94;35.05;100059.33;88146;1276;99822;-68
2022/04/10 08:56:31;;;;;;;4.10;1.80;;;;;;;14.73;35.23;100057.34;88139;1276;86853;-71
2022/04/10 08:58:41;;;;;;;4.00;2.20;;;;;;;14.12;35.50;100063.40;88160;1277;94556;-71
2022/04/10 09:00:53;;;;;;;4.40;2.20;;;;;;;13.66;36.00;100064.91;88151;1277;78168;-72
2022/04/10 09:03:04;;;;;;;4.90;2.30;;;;;;;13.29;36.81;100075.48;88197;1276;82967;-71
2022/04/10 09:05:21;;;;;;;5.10;2.70;;;;;;;12.84;37.47;100076.39;88226;1277;97923;-71
2022/04/10 09:07:30;;;;;;;4.40;1.80;;;;;;;12.51;38.06;100075.88;88117;1276;87236;-71
2022/04/10 09:09:53;;;;;;;6.50;2.50;;;;;;;12.28;38.88;100080.36;88149;1277;94978;-71
2022/04/10 09:12:02;;;;;;;4.50;2.50;;;;;;;12.13;39.11;100082.42;88146;1276;80529;-68
2022/04/10 09:14:11;;;;;;;6.00;2.30;;;;;;;11.97;39.53;100085.36;88171;1276;82520;-68
2022/04/10 09:16:22;;;;;;;4.80;2.70;;;;;;;11.73;40.15;100088.34;88152;1277;99247;-70
2022/04/10 09:18:54;;;;;;;5.30;2.30;;;;;;;11.71;40.27;100087.05;88203;1277;86675;-70
2022/04/10 09:21:13;;;;;;;6.00;2.60;;;;;;;11.74;40.38;100089.15;88178;1276;92754;-70
2022/04/10 09:23:28;;;;;;;6.20;2.60;;;;;;;11.68;40.71;100089.00;88144;1276;78107;-70
2022/04/10 09:25:45;;;;;;;6.10;2.50;;;;;;;11.72;41.01;100093.23;88166;1276;82288;-72
2022/04/10 09:27:58;;;;;;;4.90;2.60;;;;;;;11.84;41.22;100093.74;88142;1276;98087;-67
2022/04/10 09:30:11;;;;;;;6.00;2.60;;;;;;;11.79;41.30;100098.86;88161;1276;89393;-68
2022/04/10 09:32:20;;;;;;;6.40;2.80;;;;;;;11.83;41.08;100094.78;88132;1276;94307;-70
2022/04/10 09:34:29;;;;;;;7.10;2.70;;;;;;;11.64;40.88;100100.54;88180;1276;78632;-69
2022/04/10 09:36:49;;;;;;;5.40;2.50;;;;;;;11.44;41.12;100102.80;88157;1276;79865;-73
2022/04/10 09:38:58;;;;;;;8.80;3.40;;;;;;;11.27;41.60;100100.48;88190;1276;97368;-68
2022/04/10 09:41:21;;;;;;;6.80;3.20;;;;;;;11.10;42.16;100104.89;88076;1277;89002;-70
2022/04/10 09:43:33;;;;;;;5.20;2.50;;;;;;;10.91;42.51;100111.14;88133;1276;94820;-69
2022/04/10 09:45:44;;;;;;;7.20;3.20;;;;;;;10.76;43.02;100106.13;88170;1277;80135;-71
2022/04/10 09:47:54;;;;;;;5.60;2.80;;;;;;;10.81;43.24;100108.98;88196;1276;81383;-72
2022/04/10 09:50:12;;;;;;;6.80;2.80;;;;;;;11.15;43.57;100111.23;88173;1276;97882;-70
2022/04/10 09:52:25;;;;;;;5.30;2.60;;;;;;;11.61;43.56;100109.28;88165;1276;89793;-70
2022/04/10 09:54:42;;;;;;;6.50;3.70;;;;;;;11.92;43.38;100105.34;88112;1276;95159;-71
2022/04/10 09:56:54;;;;;;;6.80;3.30;;;;;;;12.16;42.70;100105.59;88052;1278;77602;-69
2022/04/10 09:59:09;;;;;;;7.70;3.10;;;;;;;11.99;42.27;100106.86;88178;1276;83015;-71
2022/04/10 10:01:22;;;;;;;8.50;2.90;;;;;;;11.77;42.22;100108.73;88162;1276;98440;-71
2022/04/10 10:03:36;;;;;;;5.40;2.80;;;;;;;11.77;42.53;100103.86;88168;1276;89433;-70
2022/04/10 10:05:46;;;;;;;7.30;2.60;;;;;;;11.85;42.66;100111.70;88103;1277;94697;-70
2022/04/10 10:07:56;;;;;;;7.40;3.20;;;;;;;11.54;42.54;100113.75;88200;1276;77716;-71
2022/04/10 10:10:06;;;;;;;5.30;2.70;;;;;;;11.19;42.77;100117.87;88054;1277;81594;-70
2022/04/10 10:12:16;;;;;;;4.70;2.50;;;;;;;11.13;43.04;100113.58;88137;1276;97556;-68
2022/04/10 10:14:32;;;;;;;7.30;3.10;;;;;;;11.10;43.45;100119.43;88136;1277;89443;-69
2022/04/10 10:16:46;;;;;;;7.90;3.40;;;;;;;11.23;43.66;100117.21;88137;1276;95347;-68
2022/04/10 10:18:56;;;;;;;6.00;2.40;;;;;;;11.49;43.65;100124.25;88151;1276;77287;-69
2022/04/10 10:21:10;;;;;;;6.30;2.70;;;;;;;11.76;43.57;100122.80;88161;1277;81439;-68
2022/04/10 10:23:22;;;;;;;8.10;2.90;;;;;;;11.98;43.46;100118.45;88106;1277;98369;-66
2022/04/10 10:25:41;;;;;;;7.00;3.10;;;;;;;12.09;43.06;100119.46;88165;1277;88854;-67